Alder, Washington
Current Conditions -  °F | °C
As of 8:03 PM on Saturday 25 Oct 2014 (Local Time) from KGRF Reporting Station
Drizzle Drizzle  
Wind Chill: 11°   Ceiling: 2100
Heat Index: 11°   Visibility: 10mi
Dew Point: 10°   Wind: 21mph
Humidity: 94%   Direction: 180°S
Pressure: 29.53"   Gusts: 26mph
Location:  46.8687°N, 122.208°W
Report Text: KGRF 260303Z AUTO 18018G23KT 10SM DZ SCT013 BKN021 BKN026 OVC033 11/10 A2953 RMK AO2 CIG 011V021
Loading
Personal Weather Stations






























Interactive Weather Map
Tropical Storm Tracking
New forecast layout! Learn more

10-Day Weather Forecast

Advertisements
Track Severe Weather on mobile